sensor_id;sensor_type;location;lat;lon;timestamp;P1;durP1;ratioP1;P2;durP2;ratioP2
47167;SDS011;32931;47.778;17.806;2023-06-10T00:02:11;15.88;;;7.30;;
47167;SDS011;32931;47.778;17.806;2023-06-10T00:04:38;21.15;;;8.05;;
47167;SDS011;32931;47.778;17.806;2023-06-10T00:07:04;25.02;;;8.52;;
47167;SDS011;32931;47.778;17.806;2023-06-10T00:09:37;20.90;;;8.07;;
47167;SDS011;32931;47.778;17.806;2023-06-10T00:12:07;18.15;;;8.35;;
47167;SDS011;32931;47.778;17.806;2023-06-10T00:14:36;18.23;;;8.32;;
47167;SDS011;32931;47.778;17.806;2023-06-10T00:17:03;19.92;;;9.13;;
47167;SDS011;32931;47.778;17.806;2023-06-10T00:19:30;23.02;;;8.70;;
47167;SDS011;32931;47.778;17.806;2023-06-10T00:21:57;23.98;;;8.80;;
47167;SDS011;32931;47.778;17.806;2023-06-10T00:24:23;20.50;;;9.05;;
47167;SDS011;32931;47.778;17.806;2023-06-10T00:26:49;27.60;;;8.52;;
47167;SDS011;32931;47.778;17.806;2023-06-10T00:29:16;29.58;;;8.88;;
47167;SDS011;32931;47.778;17.806;2023-06-10T00:31:43;29.23;;;8.48;;
47167;SDS011;32931;47.778;17.806;2023-06-10T00:34:10;30.05;;;8.43;;
47167;SDS011;32931;47.778;17.806;2023-06-10T00:36:37;23.27;;;8.30;;
47167;SDS011;32931;47.778;17.806;2023-06-10T00:39:03;16.40;;;8.20;;
47167;SDS011;32931;47.778;17.806;2023-06-10T00:41:32;21.10;;;8.35;;
47167;SDS011;32931;47.778;17.806;2023-06-10T00:43:59;23.55;;;8.20;;
47167;SDS011;32931;47.778;17.806;2023-06-10T00:46:25;32.88;;;9.52;;
47167;SDS011;32931;47.778;17.806;2023-06-10T00:48:52;16.85;;;9.15;;
47167;SDS011;32931;47.778;17.806;2023-06-10T00:51:18;21.25;;;8.73;;
47167;SDS011;32931;47.778;17.806;2023-06-10T00:53:45;21.88;;;9.45;;
47167;SDS011;32931;47.778;17.806;2023-06-10T00:56:13;31.95;;;9.23;;
47167;SDS011;32931;47.778;17.806;2023-06-10T00:58:39;22.55;;;9.15;;
47167;SDS011;32931;47.778;17.806;2023-06-10T01:01:06;24.98;;;8.98;;
47167;SDS011;32931;47.778;17.806;2023-06-10T01:03:32;24.52;;;8.85;;
47167;SDS011;32931;47.778;17.806;2023-06-10T01:06:18;24.38;;;8.80;;
47167;SDS011;32931;47.778;17.806;2023-06-10T01:08:46;11.02;;;8.50;;
47167;SDS011;32931;47.778;17.806;2023-06-10T01:11:28;18.98;;;9.70;;
47167;SDS011;32931;47.778;17.806;2023-06-10T01:14:00;21.83;;;9.52;;
47167;SDS011;32931;47.778;17.806;2023-06-10T01:16:26;15.77;;;8.65;;
47167;SDS011;32931;47.778;17.806;2023-06-10T01:18:53;24.58;;;11.00;;
47167;SDS011;32931;47.778;17.806;2023-06-10T01:21:20;27.50;;;10.00;;
47167;SDS011;32931;47.778;17.806;2023-06-10T01:23:50;27.23;;;11.40;;
47167;SDS011;32931;47.778;17.806;2023-06-10T01:26:18;27.35;;;10.38;;
47167;SDS011;32931;47.778;17.806;2023-06-10T01:29:04;20.90;;;10.15;;
47167;SDS011;32931;47.778;17.806;2023-06-10T01:34:07;24.70;;;11.07;;
47167;SDS011;32931;47.778;17.806;2023-06-10T01:36:36;19.60;;;9.18;;
47167;SDS011;32931;47.778;17.806;2023-06-10T01:39:04;25.67;;;11.60;;
47167;SDS011;32931;47.778;17.806;2023-06-10T01:41:31;21.83;;;10.88;;
47167;SDS011;32931;47.778;17.806;2023-06-10T01:43:58;17.83;;;11.32;;
47167;SDS011;32931;47.778;17.806;2023-06-10T01:46:24;21.33;;;12.10;;
47167;SDS011;32931;47.778;17.806;2023-06-10T01:48:50;31.08;;;11.80;;
47167;SDS011;32931;47.778;17.806;2023-06-10T01:51:16;20.85;;;11.77;;
47167;SDS011;32931;47.778;17.806;2023-06-10T01:53:42;22.35;;;11.30;;
47167;SDS011;32931;47.778;17.806;2023-06-10T01:56:09;30.15;;;10.80;;
47167;SDS011;32931;47.778;17.806;2023-06-10T01:58:35;86.13;;;11.13;;
47167;SDS011;32931;47.778;17.806;2023-06-10T02:01:01;24.25;;;9.88;;
47167;SDS011;32931;47.778;17.806;2023-06-10T02:03:27;24.55;;;10.70;;
47167;SDS011;32931;47.778;17.806;2023-06-10T02:05:53;23.65;;;11.68;;
47167;SDS011;32931;47.778;17.806;2023-06-10T02:08:20;37.20;;;11.95;;
47167;SDS011;32931;47.778;17.806;2023-06-10T02:10:46;24.23;;;11.80;;
47167;SDS011;32931;47.778;17.806;2023-06-10T02:13:12;21.80;;;12.27;;
47167;SDS011;32931;47.778;17.806;2023-06-10T02:15:38;34.20;;;12.80;;
47167;SDS011;32931;47.778;17.806;2023-06-10T02:18:04;25.77;;;13.63;;
47167;SDS011;32931;47.778;17.806;2023-06-10T02:20:31;22.63;;;12.90;;
47167;SDS011;32931;47.778;17.806;2023-06-10T02:22:58;36.97;;;12.75;;
47167;SDS011;32931;47.778;17.806;2023-06-10T02:25:24;19.90;;;12.80;;
47167;SDS011;32931;47.778;17.806;2023-06-10T02:27:50;22.38;;;12.70;;
47167;SDS011;32931;47.778;17.806;2023-06-10T02:30:17;28.25;;;12.77;;
47167;SDS011;32931;47.778;17.806;2023-06-10T02:32:43;36.35;;;12.55;;
47167;SDS011;32931;47.778;17.806;2023-06-10T02:35:13;21.70;;;13.48;;
47167;SDS011;32931;47.778;17.806;2023-06-10T02:37:40;29.85;;;13.00;;
47167;SDS011;32931;47.778;17.806;2023-06-10T02:40:08;22.95;;;13.52;;
47167;SDS011;32931;47.778;17.806;2023-06-10T02:42:34;25.25;;;13.90;;
47167;SDS011;32931;47.778;17.806;2023-06-10T02:45:01;21.85;;;13.55;;
47167;SDS011;32931;47.778;17.806;2023-06-10T02:47:28;26.08;;;14.45;;
47167;SDS011;32931;47.778;17.806;2023-06-10T02:49:54;25.50;;;13.77;;
47167;SDS011;32931;47.778;17.806;2023-06-10T02:52:20;31.10;;;13.75;;
47167;SDS011;32931;47.778;17.806;2023-06-10T02:54:46;23.75;;;13.40;;
47167;SDS011;32931;47.778;17.806;2023-06-10T02:57:12;25.75;;;13.93;;
47167;SDS011;32931;47.778;17.806;2023-06-10T02:59:40;23.17;;;14.30;;
47167;SDS011;32931;47.778;17.806;2023-06-10T03:02:06;20.58;;;13.63;;
47167;SDS011;32931;47.778;17.806;2023-06-10T03:04:32;21.17;;;14.68;;
47167;SDS011;32931;47.778;17.806;2023-06-10T03:06:59;23.70;;;14.18;;
47167;SDS011;32931;47.778;17.806;2023-06-10T03:09:29;20.95;;;14.45;;
47167;SDS011;32931;47.778;17.806;2023-06-10T03:11:55;22.83;;;14.60;;
47167;SDS011;32931;47.778;17.806;2023-06-10T03:14:21;24.80;;;14.60;;
47167;SDS011;32931;47.778;17.806;2023-06-10T03:16:47;35.67;;;15.23;;
47167;SDS011;32931;47.778;17.806;2023-06-10T03:19:14;31.90;;;17.17;;
47167;SDS011;32931;47.778;17.806;2023-06-10T03:21:43;37.83;;;17.10;;
47167;SDS011;32931;47.778;17.806;2023-06-10T03:24:10;39.97;;;19.17;;
47167;SDS011;32931;47.778;17.806;2023-06-10T03:26:36;48.40;;;20.00;;
47167;SDS011;32931;47.778;17.806;2023-06-10T03:29:02;106.55;;;20.58;;
47167;SDS011;32931;47.778;17.806;2023-06-10T03:31:28;44.00;;;19.83;;
47167;SDS011;32931;47.778;17.806;2023-06-10T03:33:55;46.10;;;21.15;;
47167;SDS011;32931;47.778;17.806;2023-06-10T03:36:21;44.42;;;20.67;;
47167;SDS011;32931;47.778;17.806;2023-06-10T03:38:47;62.95;;;21.63;;
47167;SDS011;32931;47.778;17.806;2023-06-10T03:41:13;57.90;;;20.63;;
47167;SDS011;32931;47.778;17.806;2023-06-10T03:43:40;47.72;;;19.77;;
47167;SDS011;32931;47.778;17.806;2023-06-10T03:46:06;55.97;;;21.45;;
47167;SDS011;32931;47.778;17.806;2023-06-10T03:48:32;80.30;;;20.23;;
47167;SDS011;32931;47.778;17.806;2023-06-10T03:50:58;78.82;;;19.02;;
47167;SDS011;32931;47.778;17.806;2023-06-10T03:53:24;76.18;;;17.98;;
47167;SDS011;32931;47.778;17.806;2023-06-10T03:55:51;29.90;;;17.17;;
47167;SDS011;32931;47.778;17.806;2023-06-10T03:58:17;77.75;;;17.88;;
47167;SDS011;32931;47.778;17.806;2023-06-10T04:00:43;98.05;;;18.27;;
47167;SDS011;32931;47.778;17.806;2023-06-10T04:03:11;135.35;;;19.05;;
47167;SDS011;32931;47.778;17.806;2023-06-10T04:05:40;114.93;;;18.52;;
47167;SDS011;32931;47.778;17.806;2023-06-10T04:08:07;23.95;;;16.35;;
47167;SDS011;32931;47.778;17.806;2023-06-10T04:10:34;149.77;;;15.98;;
47167;SDS011;32931;47.778;17.806;2023-06-10T04:13:00;97.13;;;14.82;;
47167;SDS011;32931;47.778;17.806;2023-06-10T04:15:26;178.10;;;16.45;;
47167;SDS011;32931;47.778;17.806;2023-06-10T04:17:52;75.07;;;16.67;;
47167;SDS011;32931;47.778;17.806;2023-06-10T04:20:18;64.75;;;14.85;;
47167;SDS011;32931;47.778;17.806;2023-06-10T04:22:44;124.53;;;14.80;;
47167;SDS011;32931;47.778;17.806;2023-06-10T04:25:11;84.45;;;14.20;;
47167;SDS011;32931;47.778;17.806;2023-06-10T04:27:37;39.53;;;14.73;;
47167;SDS011;32931;47.778;17.806;2023-06-10T04:30:03;38.30;;;14.10;;
47167;SDS011;32931;47.778;17.806;2023-06-10T04:32:30;82.03;;;13.73;;
47167;SDS011;32931;47.778;17.806;2023-06-10T04:34:56;20.77;;;13.07;;
47167;SDS011;32931;47.778;17.806;2023-06-10T04:37:22;19.40;;;13.15;;
47167;SDS011;32931;47.778;17.806;2023-06-10T04:39:48;25.90;;;14.38;;
47167;SDS011;32931;47.778;17.806;2023-06-10T04:42:14;29.38;;;14.65;;
47167;SDS011;32931;47.778;17.806;2023-06-10T04:44:40;24.88;;;14.43;;
47167;SDS011;32931;47.778;17.806;2023-06-10T04:47:07;28.83;;;15.43;;
47167;SDS011;32931;47.778;17.806;2023-06-10T04:49:33;22.75;;;14.90;;
47167;SDS011;32931;47.778;17.806;2023-06-10T04:51:59;28.83;;;15.10;;
47167;SDS011;32931;47.778;17.806;2023-06-10T04:54:25;69.97;;;15.23;;
47167;SDS011;32931;47.778;17.806;2023-06-10T04:56:51;25.45;;;15.55;;
47167;SDS011;32931;47.778;17.806;2023-06-10T04:59:17;32.55;;;13.15;;
47167;SDS011;32931;47.778;17.806;2023-06-10T05:01:44;19.25;;;13.93;;
47167;SDS011;32931;47.778;17.806;2023-06-10T05:04:10;64.85;;;13.88;;
47167;SDS011;32931;47.778;17.806;2023-06-10T05:06:36;25.70;;;13.00;;
47167;SDS011;32931;47.778;17.806;2023-06-10T05:09:02;79.75;;;13.82;;
47167;SDS011;32931;47.778;17.806;2023-06-10T05:11:28;82.45;;;13.90;;
47167;SDS011;32931;47.778;17.806;2023-06-10T05:13:54;60.95;;;12.93;;
47167;SDS011;32931;47.778;17.806;2023-06-10T05:16:21;122.70;;;14.05;;
47167;SDS011;32931;47.778;17.806;2023-06-10T05:18:47;35.72;;;14.43;;
47167;SDS011;32931;47.778;17.806;2023-06-10T05:21:13;69.40;;;13.27;;
47167;SDS011;32931;47.778;17.806;2023-06-10T05:23:41;69.32;;;13.23;;
47167;SDS011;32931;47.778;17.806;2023-06-10T05:26:07;37.83;;;12.95;;
47167;SDS011;32931;47.778;17.806;2023-06-10T05:28:33;45.47;;;12.80;;
47167;SDS011;32931;47.778;17.806;2023-06-10T05:30:59;53.72;;;12.70;;
47167;SDS011;32931;47.778;17.806;2023-06-10T05:33:25;26.30;;;12.27;;
47167;SDS011;32931;47.778;17.806;2023-06-10T05:35:52;68.20;;;13.55;;
47167;SDS011;32931;47.778;17.806;2023-06-10T05:38:18;43.30;;;12.02;;
47167;SDS011;32931;47.778;17.806;2023-06-10T05:40:45;38.90;;;12.02;;
47167;SDS011;32931;47.778;17.806;2023-06-10T05:43:11;37.88;;;11.18;;
47167;SDS011;32931;47.778;17.806;2023-06-10T05:45:38;25.52;;;12.30;;
47167;SDS011;32931;47.778;17.806;2023-06-10T05:48:05;22.75;;;11.95;;
47167;SDS011;32931;47.778;17.806;2023-06-10T05:50:31;30.48;;;12.30;;
47167;SDS011;32931;47.778;17.806;2023-06-10T05:53:03;28.70;;;12.32;;
47167;SDS011;32931;47.778;17.806;2023-06-10T05:55:32;17.65;;;12.35;;
47167;SDS011;32931;47.778;17.806;2023-06-10T05:57:59;15.50;;;11.77;;
47167;SDS011;32931;47.778;17.806;2023-06-10T06:00:26;21.50;;;12.40;;
47167;SDS011;32931;47.778;17.806;2023-06-10T06:02:52;19.27;;;12.35;;
47167;SDS011;32931;47.778;17.806;2023-06-10T06:05:19;17.15;;;11.90;;
47167;SDS011;32931;47.778;17.806;2023-06-10T06:07:45;19.40;;;13.18;;
47167;SDS011;32931;47.778;17.806;2023-06-10T06:10:12;19.00;;;13.27;;
47167;SDS011;32931;47.778;17.806;2023-06-10T06:12:38;16.83;;;11.95;;
47167;SDS011;32931;47.778;17.806;2023-06-10T06:15:04;18.83;;;12.38;;
47167;SDS011;32931;47.778;17.806;2023-06-10T06:17:30;15.23;;;11.45;;
47167;SDS011;32931;47.778;17.806;2023-06-10T06:19:57;16.17;;;11.05;;
47167;SDS011;32931;47.778;17.806;2023-06-10T06:22:23;15.57;;;10.85;;
47167;SDS011;32931;47.778;17.806;2023-06-10T06:24:49;15.40;;;10.77;;
47167;SDS011;32931;47.778;17.806;2023-06-10T06:27:15;21.75;;;11.82;;
47167;SDS011;32931;47.778;17.806;2023-06-10T06:29:41;15.48;;;11.25;;
47167;SDS011;32931;47.778;17.806;2023-06-10T06:32:08;15.38;;;11.13;;
47167;SDS011;32931;47.778;17.806;2023-06-10T06:34:34;14.57;;;10.95;;
47167;SDS011;32931;47.778;17.806;2023-06-10T06:37:00;15.45;;;11.40;;
47167;SDS011;32931;47.778;17.806;2023-06-10T06:39:26;17.90;;;12.82;;
47167;SDS011;32931;47.778;17.806;2023-06-10T06:41:53;12.88;;;11.48;;
47167;SDS011;32931;47.778;17.806;2023-06-10T06:44:19;13.40;;;10.90;;
47167;SDS011;32931;47.778;17.806;2023-06-10T06:46:45;16.92;;;11.00;;
47167;SDS011;32931;47.778;17.806;2023-06-10T06:49:11;15.73;;;11.30;;
47167;SDS011;32931;47.778;17.806;2023-06-10T06:51:37;15.18;;;11.45;;
47167;SDS011;32931;47.778;17.806;2023-06-10T06:54:03;14.25;;;11.48;;
47167;SDS011;32931;47.778;17.806;2023-06-10T06:56:31;15.05;;;12.13;;
47167;SDS011;32931;47.778;17.806;2023-06-10T06:58:57;16.33;;;11.38;;
47167;SDS011;32931;47.778;17.806;2023-06-10T07:01:23;14.15;;;11.77;;
47167;SDS011;32931;47.778;17.806;2023-06-10T07:03:49;16.48;;;11.93;;
47167;SDS011;32931;47.778;17.806;2023-06-10T07:06:15;19.58;;;12.07;;
47167;SDS011;32931;47.778;17.806;2023-06-10T07:08:42;14.82;;;12.55;;
47167;SDS011;32931;47.778;17.806;2023-06-10T07:11:08;20.73;;;12.40;;
47167;SDS011;32931;47.778;17.806;2023-06-10T07:13:34;19.13;;;12.48;;
47167;SDS011;32931;47.778;17.806;2023-06-10T07:16:00;18.35;;;13.30;;
47167;SDS011;32931;47.778;17.806;2023-06-10T07:18:26;17.77;;;12.35;;
47167;SDS011;32931;47.778;17.806;2023-06-10T07:20:53;16.10;;;12.18;;
47167;SDS011;32931;47.778;17.806;2023-06-10T07:23:19;22.00;;;13.85;;
47167;SDS011;32931;47.778;17.806;2023-06-10T07:25:45;19.17;;;11.60;;
47167;SDS011;32931;47.778;17.806;2023-06-10T07:28:11;15.07;;;11.70;;
47167;SDS011;32931;47.778;17.806;2023-06-10T07:30:37;17.27;;;11.75;;
47167;SDS011;32931;47.778;17.806;2023-06-10T07:33:04;15.18;;;11.07;;
47167;SDS011;32931;47.778;17.806;2023-06-10T07:35:33;13.10;;;10.63;;
47167;SDS011;32931;47.778;17.806;2023-06-10T07:37:59;15.55;;;10.82;;
47167;SDS011;32931;47.778;17.806;2023-06-10T07:40:25;14.73;;;10.60;;
47167;SDS011;32931;47.778;17.806;2023-06-10T07:42:51;20.52;;;12.02;;
47167;SDS011;32931;47.778;17.806;2023-06-10T07:45:18;13.95;;;10.55;;
47167;SDS011;32931;47.778;17.806;2023-06-10T07:47:44;12.05;;;9.30;;
47167;SDS011;32931;47.778;17.806;2023-06-10T07:50:10;16.75;;;10.23;;
47167;SDS011;32931;47.778;17.806;2023-06-10T07:52:37;15.98;;;10.38;;
47167;SDS011;32931;47.778;17.806;2023-06-10T07:55:03;15.50;;;10.25;;
47167;SDS011;32931;47.778;17.806;2023-06-10T07:57:30;11.80;;;9.25;;
47167;SDS011;32931;47.778;17.806;2023-06-10T08:00:00;15.45;;;9.18;;
47167;SDS011;32931;47.778;17.806;2023-06-10T08:02:28;15.10;;;9.00;;
47167;SDS011;32931;47.778;17.806;2023-06-10T08:04:54;11.98;;;8.88;;
47167;SDS011;32931;47.778;17.806;2023-06-10T08:07:20;11.70;;;8.70;;
47167;SDS011;32931;47.778;17.806;2023-06-10T08:09:47;12.13;;;9.43;;
47167;SDS011;32931;47.778;17.806;2023-06-10T08:12:13;10.80;;;8.85;;
47167;SDS011;32931;47.778;17.806;2023-06-10T08:14:40;12.02;;;8.93;;
47167;SDS011;32931;47.778;17.806;2023-06-10T08:17:06;17.20;;;8.82;;
47167;SDS011;32931;47.778;17.806;2023-06-10T08:19:33;11.48;;;8.63;;
47167;SDS011;32931;47.778;17.806;2023-06-10T08:21:59;11.50;;;8.73;;
47167;SDS011;32931;47.778;17.806;2023-06-10T08:24:25;11.95;;;8.55;;
47167;SDS011;32931;47.778;17.806;2023-06-10T08:26:51;15.13;;;8.50;;
47167;SDS011;32931;47.778;17.806;2023-06-10T08:29:17;10.15;;;7.47;;
47167;SDS011;32931;47.778;17.806;2023-06-10T08:31:44;11.30;;;8.10;;
47167;SDS011;32931;47.778;17.806;2023-06-10T08:34:10;14.82;;;7.40;;
47167;SDS011;32931;47.778;17.806;2023-06-10T08:36:37;9.68;;;7.80;;
47167;SDS011;32931;47.778;17.806;2023-06-10T08:39:03;10.63;;;7.53;;
47167;SDS011;32931;47.778;17.806;2023-06-10T08:41:30;13.02;;;7.22;;
47167;SDS011;32931;47.778;17.806;2023-06-10T08:44:12;10.40;;;6.88;;
47167;SDS011;32931;47.778;17.806;2023-06-10T08:46:47;9.13;;;6.90;;
47167;SDS011;32931;47.778;17.806;2023-06-10T08:49:17;9.20;;;6.63;;
47167;SDS011;32931;47.778;17.806;2023-06-10T08:51:49;8.60;;;6.40;;
47167;SDS011;32931;47.778;17.806;2023-06-10T08:54:17;11.15;;;7.03;;
47167;SDS011;32931;47.778;17.806;2023-06-10T08:56:48;9.75;;;6.03;;
47167;SDS011;32931;47.778;17.806;2023-06-10T08:59:18;7.20;;;4.90;;
47167;SDS011;32931;47.778;17.806;2023-06-10T09:01:45;7.30;;;5.55;;
47167;SDS011;32931;47.778;17.806;2023-06-10T09:04:13;10.90;;;6.95;;
47167;SDS011;32931;47.778;17.806;2023-06-10T09:06:39;9.98;;;6.38;;
47167;SDS011;32931;47.778;17.806;2023-06-10T09:09:06;11.88;;;6.35;;
47167;SDS011;32931;47.778;17.806;2023-06-10T09:11:33;14.05;;;6.82;;
47167;SDS011;32931;47.778;17.806;2023-06-10T09:13:59;8.45;;;7.03;;
47167;SDS011;32931;47.778;17.806;2023-06-10T09:16:25;7.88;;;6.50;;
47167;SDS011;32931;47.778;17.806;2023-06-10T09:18:51;10.90;;;5.78;;
47167;SDS011;32931;47.778;17.806;2023-06-10T09:21:23;9.60;;;5.95;;
47167;SDS011;32931;47.778;17.806;2023-06-10T09:23:50;7.68;;;5.45;;
47167;SDS011;32931;47.778;17.806;2023-06-10T09:26:17;6.35;;;5.07;;
47167;SDS011;32931;47.778;17.806;2023-06-10T09:28:50;6.45;;;5.30;;
47167;SDS011;32931;47.778;17.806;2023-06-10T09:31:16;9.38;;;4.88;;
47167;SDS011;32931;47.778;17.806;2023-06-10T09:33:47;4.90;;;4.15;;
47167;SDS011;32931;47.778;17.806;2023-06-10T09:36:21;8.20;;;4.65;;
47167;SDS011;32931;47.778;17.806;2023-06-10T09:38:49;5.57;;;4.05;;
47167;SDS011;32931;47.778;17.806;2023-06-10T09:41:16;8.35;;;3.97;;
47167;SDS011;32931;47.778;17.806;2023-06-10T09:43:43;4.22;;;3.45;;
47167;SDS011;32931;47.778;17.806;2023-06-10T09:46:18;5.68;;;3.40;;
47167;SDS011;32931;47.778;17.806;2023-06-10T09:48:46;7.40;;;3.60;;
47167;SDS011;32931;47.778;17.806;2023-06-10T09:51:13;4.18;;;3.42;;
47167;SDS011;32931;47.778;17.806;2023-06-10T09:53:40;5.25;;;3.70;;
47167;SDS011;32931;47.778;17.806;2023-06-10T09:56:06;8.40;;;3.50;;
47167;SDS011;32931;47.778;17.806;2023-06-10T09:58:36;4.20;;;2.92;;
47167;SDS011;32931;47.778;17.806;2023-06-10T10:01:09;4.57;;;2.90;;
47167;SDS011;32931;47.778;17.806;2023-06-10T10:03:46;7.40;;;2.83;;
47167;SDS011;32931;47.778;17.806;2023-06-10T10:06:15;8.48;;;2.75;;
47167;SDS011;32931;47.778;17.806;2023-06-10T10:08:42;10.50;;;3.03;;
47167;SDS011;32931;47.778;17.806;2023-06-10T10:11:10;4.70;;;2.78;;
47167;SDS011;32931;47.778;17.806;2023-06-10T10:13:37;3.60;;;2.67;;
47167;SDS011;32931;47.778;17.806;2023-06-10T10:16:06;5.38;;;2.88;;
47167;SDS011;32931;47.778;17.806;2023-06-10T10:18:38;6.72;;;2.45;;
47167;SDS011;32931;47.778;17.806;2023-06-10T10:21:11;3.90;;;2.88;;
47167;SDS011;32931;47.778;17.806;2023-06-10T10:23:48;6.03;;;2.75;;
47167;SDS011;32931;47.778;17.806;2023-06-10T10:26:19;3.03;;;2.58;;
47167;SDS011;32931;47.778;17.806;2023-06-10T10:28:51;4.80;;;2.92;;
47167;SDS011;32931;47.778;17.806;2023-06-10T10:31:24;4.65;;;2.80;;
47167;SDS011;32931;47.778;17.806;2023-06-10T10:33:58;3.80;;;2.78;;
47167;SDS011;32931;47.778;17.806;2023-06-10T10:36:25;4.07;;;2.80;;
47167;SDS011;32931;47.778;17.806;2023-06-10T10:38:51;4.50;;;3.03;;
47167;SDS011;32931;47.778;17.806;2023-06-10T10:41:18;3.95;;;3.00;;
47167;SDS011;32931;47.778;17.806;2023-06-10T10:43:46;5.30;;;3.00;;
47167;SDS011;32931;47.778;17.806;2023-06-10T10:46:13;11.95;;;2.90;;
47167;SDS011;32931;47.778;17.806;2023-06-10T10:48:41;4.15;;;2.70;;
47167;SDS011;32931;47.778;17.806;2023-06-10T10:51:08;4.93;;;2.55;;
47167;SDS011;32931;47.778;17.806;2023-06-10T10:53:36;6.53;;;2.67;;
47167;SDS011;32931;47.778;17.806;2023-06-10T10:56:08;5.88;;;2.63;;
47167;SDS011;32931;47.778;17.806;2023-06-10T10:58:38;5.63;;;2.50;;
47167;SDS011;32931;47.778;17.806;2023-06-10T11:01:11;6.32;;;2.60;;
47167;SDS011;32931;47.778;17.806;2023-06-10T11:03:42;6.57;;;2.65;;
47167;SDS011;32931;47.778;17.806;2023-06-10T11:06:13;4.15;;;2.80;;
47167;SDS011;32931;47.778;17.806;2023-06-10T11:16:42;6.22;;;3.40;;
47167;SDS011;32931;47.778;17.806;2023-06-10T11:19:09;20.02;;;4.07;;
47167;SDS011;32931;47.778;17.806;2023-06-10T11:24:25;7.72;;;3.40;;
47167;SDS011;32931;47.778;17.806;2023-06-10T11:26:52;5.15;;;2.85;;
47167;SDS011;32931;47.778;17.806;2023-06-10T11:29:18;5.07;;;2.80;;
47167;SDS011;32931;47.778;17.806;2023-06-10T11:31:48;4.05;;;3.05;;
47167;SDS011;32931;47.778;17.806;2023-06-10T11:34:21;6.70;;;3.05;;
47167;SDS011;32931;47.778;17.806;2023-06-10T11:36:52;4.90;;;3.35;;
47167;SDS011;32931;47.778;17.806;2023-06-10T11:39:19;5.40;;;3.13;;
47167;SDS011;32931;47.778;17.806;2023-06-10T11:41:48;5.15;;;3.10;;
47167;SDS011;32931;47.778;17.806;2023-06-10T11:44:17;20.08;;;2.95;;
47167;SDS011;32931;47.778;17.806;2023-06-10T11:46:44;4.60;;;2.40;;
47167;SDS011;32931;47.778;17.806;2023-06-10T11:49:11;6.45;;;2.85;;
47167;SDS011;32931;47.778;17.806;2023-06-10T11:51:38;6.28;;;2.90;;
47167;SDS011;32931;47.778;17.806;2023-06-10T11:54:07;7.30;;;2.40;;
47167;SDS011;32931;47.778;17.806;2023-06-10T11:56:34;3.92;;;2.70;;
47167;SDS011;32931;47.778;17.806;2023-06-10T11:59:02;10.38;;;2.67;;
47167;SDS011;32931;47.778;17.806;2023-06-10T12:01:35;8.02;;;2.25;;
47167;SDS011;32931;47.778;17.806;2023-06-10T12:04:06;8.00;;;2.17;;
47167;SDS011;32931;47.778;17.806;2023-06-10T12:06:59;8.05;;;2.80;;
47167;SDS011;32931;47.778;17.806;2023-06-10T12:09:27;3.47;;;2.50;;
47167;SDS011;32931;47.778;17.806;2023-06-10T12:17:23;7.35;;;2.80;;
47167;SDS011;32931;47.778;17.806;2023-06-10T12:20:47;15.75;;;3.10;;
47167;SDS011;32931;47.778;17.806;2023-06-10T12:22:53;17.55;;;3.05;;
47167;SDS011;32931;47.778;17.806;2023-06-10T12:25:24;15.45;;;4.05;;
47167;SDS011;32931;47.778;17.806;2023-06-10T12:27:52;37.22;;;7.38;;
47167;SDS011;32931;47.778;17.806;2023-06-10T12:30:20;19.25;;;4.45;;
47167;SDS011;32931;47.778;17.806;2023-06-10T12:32:48;13.07;;;4.70;;
47167;SDS011;32931;47.778;17.806;2023-06-10T12:35:19;14.80;;;4.07;;
47167;SDS011;32931;47.778;17.806;2023-06-10T12:37:56;13.00;;;3.90;;
47167;SDS011;32931;47.778;17.806;2023-06-10T12:40:27;11.95;;;3.92;;
47167;SDS011;32931;47.778;17.806;2023-06-10T12:42:54;13.50;;;3.50;;
47167;SDS011;32931;47.778;17.806;2023-06-10T12:48:43;5.22;;;3.53;;
47167;SDS011;32931;47.778;17.806;2023-06-10T12:50:57;5.35;;;3.33;;
47167;SDS011;32931;47.778;17.806;2023-06-10T12:53:24;4.88;;;3.67;;
47167;SDS011;32931;47.778;17.806;2023-06-10T12:55:52;12.88;;;4.20;;
47167;SDS011;32931;47.778;17.806;2023-06-10T12:58:21;10.05;;;4.10;;
47167;SDS011;32931;47.778;17.806;2023-06-10T13:00:49;6.22;;;3.72;;
47167;SDS011;32931;47.778;17.806;2023-06-10T13:03:18;11.93;;;4.25;;
47167;SDS011;32931;47.778;17.806;2023-06-10T13:05:44;8.20;;;3.60;;
47167;SDS011;32931;47.778;17.806;2023-06-10T13:08:10;7.05;;;3.42;;
47167;SDS011;32931;47.778;17.806;2023-06-10T13:10:36;6.28;;;3.70;;
47167;SDS011;32931;47.778;17.806;2023-06-10T13:13:03;7.45;;;3.60;;
47167;SDS011;32931;47.778;17.806;2023-06-10T13:15:32;6.38;;;3.20;;
47167;SDS011;32931;47.778;17.806;2023-06-10T13:18:02;5.68;;;2.80;;
47167;SDS011;32931;47.778;17.806;2023-06-10T13:20:29;5.43;;;3.38;;
47167;SDS011;32931;47.778;17.806;2023-06-10T13:22:56;3.47;;;3.00;;
47167;SDS011;32931;47.778;17.806;2023-06-10T13:25:22;4.40;;;3.13;;
47167;SDS011;32931;47.778;17.806;2023-06-10T13:27:48;5.88;;;3.17;;
47167;SDS011;32931;47.778;17.806;2023-06-10T13:30:14;5.57;;;2.72;;
47167;SDS011;32931;47.778;17.806;2023-06-10T13:32:42;4.65;;;3.08;;
47167;SDS011;32931;47.778;17.806;2023-06-10T13:35:08;10.02;;;3.08;;
47167;SDS011;32931;47.778;17.806;2023-06-10T13:37:35;7.65;;;3.17;;
47167;SDS011;32931;47.778;17.806;2023-06-10T13:40:01;6.68;;;3.20;;
47167;SDS011;32931;47.778;17.806;2023-06-10T13:42:28;4.03;;;2.83;;
47167;SDS011;32931;47.778;17.806;2023-06-10T13:44:54;3.10;;;2.80;;
47167;SDS011;32931;47.778;17.806;2023-06-10T13:47:22;6.43;;;2.90;;
47167;SDS011;32931;47.778;17.806;2023-06-10T13:49:48;3.00;;;2.67;;
47167;SDS011;32931;47.778;17.806;2023-06-10T13:52:14;5.57;;;2.90;;
47167;SDS011;32931;47.778;17.806;2023-06-10T13:54:40;3.55;;;3.13;;
47167;SDS011;32931;47.778;17.806;2023-06-10T13:57:06;3.33;;;2.90;;
47167;SDS011;32931;47.778;17.806;2023-06-10T13:59:36;3.22;;;2.55;;
47167;SDS011;32931;47.778;17.806;2023-06-10T14:02:02;5.25;;;2.53;;
47167;SDS011;32931;47.778;17.806;2023-06-10T14:04:29;7.25;;;2.78;;
47167;SDS011;32931;47.778;17.806;2023-06-10T14:06:55;5.43;;;2.45;;
47167;SDS011;32931;47.778;17.806;2023-06-10T14:09:22;6.70;;;2.60;;
47167;SDS011;32931;47.778;17.806;2023-06-10T14:11:48;4.32;;;2.90;;
47167;SDS011;32931;47.778;17.806;2023-06-10T14:14:14;5.15;;;2.22;;
47167;SDS011;32931;47.778;17.806;2023-06-10T14:16:41;4.03;;;2.65;;
47167;SDS011;32931;47.778;17.806;2023-06-10T14:19:07;5.32;;;2.40;;
47167;SDS011;32931;47.778;17.806;2023-06-10T14:21:33;6.70;;;2.30;;
47167;SDS011;32931;47.778;17.806;2023-06-10T14:23:59;3.55;;;2.42;;
47167;SDS011;32931;47.778;17.806;2023-06-10T14:26:25;3.25;;;2.35;;
47167;SDS011;32931;47.778;17.806;2023-06-10T14:28:51;3.95;;;2.10;;
47167;SDS011;32931;47.778;17.806;2023-06-10T14:31:18;5.97;;;2.35;;
47167;SDS011;32931;47.778;17.806;2023-06-10T14:33:44;3.67;;;1.95;;
47167;SDS011;32931;47.778;17.806;2023-06-10T14:36:10;4.30;;;2.22;;
47167;SDS011;32931;47.778;17.806;2023-06-10T14:38:36;4.72;;;2.10;;
47167;SDS011;32931;47.778;17.806;2023-06-10T14:41:02;3.13;;;1.83;;
47167;SDS011;32931;47.778;17.806;2023-06-10T14:43:28;5.10;;;2.00;;